createdAt,value
2023-02-23T09:42:15.782Z,96.40
2023-02-23T09:46:41.876Z,95.70
2023-02-23T09:49:15.004Z,94.80
2023-02-23T09:51:46.283Z,94.20
2023-02-23T09:54:14.701Z,94.90
2023-02-23T09:56:46.138Z,95.30
2023-02-23T09:59:15.604Z,95.60
2023-02-23T10:02:00.471Z,95.70
2023-02-23T10:04:30.710Z,95.40
2023-02-23T10:07:03.774Z,95.20
2023-02-23T10:09:44.258Z,94.90
2023-02-23T10:12:19.692Z,94.10
2023-02-23T10:15:02.396Z,93.50
2023-02-23T10:17:39.058Z,93.50
2023-02-23T10:20:17.515Z,93.60
2023-02-23T10:22:45.737Z,93.30
2023-02-23T10:25:14.851Z,92.80
2023-02-23T10:27:43.789Z,92.50
2023-02-23T10:30:21.099Z,92.00
2023-02-23T10:32:55.241Z,91.50
2023-02-23T10:35:23.265Z,91.30
2023-02-23T10:37:52.600Z,91.20
2023-02-23T10:40:21.691Z,91.50
2023-02-23T10:42:48.791Z,90.80
2023-02-23T10:45:17.457Z,91.00
2023-02-23T10:47:45.019Z,91.10
2023-02-23T10:50:15.001Z,91.10
2023-02-23T10:52:45.449Z,91.10
2023-02-23T10:55:23.005Z,91.50
2023-02-23T10:57:50.750Z,91.70
2023-02-23T11:00:28.908Z,91.80
2023-02-23T11:02:56.540Z,91.60
2023-02-23T11:05:32.214Z,91.40
2023-02-23T11:08:19.136Z,90.90
2023-02-23T11:11:05.763Z,89.60
2023-02-23T11:13:38.786Z,89.40
2023-02-23T11:16:09.583Z,89.30
2023-02-23T11:18:37.273Z,88.60
2023-02-23T11:21:10.611Z,87.50
2023-02-23T11:23:38.697Z,86.20
2023-02-23T11:26:18.622Z,85.70
2023-02-23T11:28:45.595Z,85.60
2023-02-23T11:31:17.236Z,84.60
2023-02-23T11:33:45.631Z,84.40
2023-02-23T11:36:29.383Z,84.10
2023-02-23T11:39:07.300Z,83.10
2023-02-23T11:41:35.385Z,83.80
2023-02-23T11:44:05.781Z,84.10
2023-02-23T11:46:36.262Z,84.40
2023-02-23T11:49:06.320Z,84.50
2023-02-23T11:51:36.330Z,84.20
2023-02-23T11:54:05.743Z,83.40
2023-02-23T11:56:35.239Z,83.50
2023-02-23T11:59:04.955Z,83.50
2023-02-23T12:01:40.913Z,83.10
2023-02-23T12:04:08.704Z,82.50
2023-02-23T12:06:39.327Z,82.30
2023-02-23T12:09:14.365Z,81.60
2023-02-23T12:11:48.576Z,80.30
2023-02-23T12:14:25.802Z,78.30
2023-02-23T12:16:57.086Z,76.90
2023-02-23T12:19:28.175Z,75.90
2023-02-23T12:22:03.374Z,76.10
2023-02-23T12:24:40.794Z,76.60
2023-02-23T12:27:12.999Z,77.20
2023-02-23T12:29:48.865Z,77.50
2023-02-23T12:32:21.917Z,77.60
2023-02-23T12:34:54.071Z,77.60
2023-02-23T12:37:31.622Z,77.50
2023-02-23T12:40:07.252Z,77.80
2023-02-23T12:42:39.864Z,77.00
2023-02-23T12:45:14.359Z,76.90
2023-02-23T12:47:48.209Z,77.70
2023-02-23T12:50:21.231Z,77.90
2023-02-23T12:52:53.756Z,77.60
2023-02-23T12:55:30.759Z,77.30
2023-02-23T12:58:05.211Z,76.40
2023-02-23T13:00:51.691Z,79.70
2023-02-23T13:03:45.234Z,75.50
2023-02-23T13:06:21.705Z,75.60
2023-02-23T13:09:05.013Z,76.50
2023-02-23T13:12:00.157Z,76.90
2023-02-23T13:14:33.064Z,77.40
2023-02-23T13:17:05.857Z,77.90
2023-02-23T13:19:39.942Z,78.80
2023-02-23T13:22:28.126Z,79.50
2023-02-23T13:25:00.402Z,80.40
2023-02-23T13:27:30.414Z,81.60
2023-02-23T13:29:57.937Z,82.50
2023-02-23T13:32:26.842Z,82.60
2023-02-23T13:34:56.684Z,82.40
2023-02-23T13:37:28.284Z,82.40
2023-02-23T13:40:14.968Z,82.60
2023-02-23T13:42:53.066Z,82.50
2023-02-23T13:45:41.621Z,82.10
2023-02-23T13:48:19.339Z,81.80
2023-02-23T13:50:53.726Z,81.30
2023-02-23T13:53:33.492Z,81.60
2023-02-23T13:56:05.264Z,80.50
2023-02-23T13:58:32.552Z,78.80
2023-02-23T14:01:07.848Z,77.60
2023-02-23T14:03:44.117Z,75.80
2023-02-23T14:06:18.033Z,75.90
2023-02-23T14:08:45.648Z,76.10
2023-02-23T14:11:29.887Z,76.80
2023-02-23T14:14:00.719Z,77.70
2023-02-23T14:16:27.651Z,78.60
2023-02-23T14:19:07.320Z,79.30
2023-02-23T14:21:41.528Z,79.40
2023-02-23T14:24:17.826Z,78.80
2023-02-23T14:27:16.222Z,78.80
2023-02-23T14:30:05.593Z,78.20
2023-02-23T14:32:38.642Z,77.80
2023-02-23T14:35:05.986Z,76.80
2023-02-23T14:37:35.712Z,75.10
2023-02-23T14:40:11.904Z,73.10
2023-02-23T14:42:40.410Z,71.50
2023-02-23T14:45:18.824Z,70.70
2023-02-23T14:47:47.928Z,71.90
2023-02-23T14:50:26.438Z,73.00
2023-02-23T14:52:54.852Z,73.30
2023-02-23T14:55:24.574Z,74.20
2023-02-23T14:57:53.112Z,75.30
2023-02-23T15:00:23.054Z,76.60
2023-02-23T15:02:55.822Z,77.90
2023-02-23T15:05:25.213Z,79.30
2023-02-23T15:07:52.349Z,80.10
2023-02-23T15:10:24.779Z,81.20
2023-02-23T15:12:54.018Z,81.40
2023-02-23T15:15:24.336Z,82.00
2023-02-23T15:17:54.424Z,82.40
2023-02-23T15:20:23.947Z,90.80
2023-02-23T15:22:53.950Z,83.20
2023-02-23T15:25:23.182Z,83.50
2023-02-23T15:27:51.829Z,83.90
2023-02-23T15:30:25.938Z,85.60
2023-02-23T15:33:00.479Z,85.80
2023-02-23T15:35:28.027Z,87.40
2023-02-23T15:38:05.674Z,88.60
2023-02-23T15:40:42.063Z,88.70
2023-02-23T15:43:11.516Z,89.90
2023-02-23T15:45:42.953Z,90.00
2023-02-23T15:48:14.999Z,90.10
2023-02-23T15:50:44.168Z,90.50
2023-02-23T15:53:22.440Z,89.10
2023-02-23T15:55:49.425Z,84.60
2023-02-23T15:58:24.423Z,84.40
2023-02-23T16:00:56.424Z,84.80
2023-02-23T16:03:25.436Z,86.40
2023-02-23T16:06:01.954Z,86.00
2023-02-23T16:08:29.645Z,87.50
2023-02-23T16:11:09.009Z,94.40
2023-02-23T16:13:37.439Z,91.00
2023-02-23T16:16:06.024Z,87.20
2023-02-23T16:18:39.274Z,86.10
2023-02-23T16:21:07.018Z,86.00
2023-02-23T16:23:36.801Z,85.80
2023-02-23T16:26:09.555Z,86.50
2023-02-23T16:28:41.388Z,87.00
2023-02-23T16:31:09.877Z,87.70
2023-02-23T16:33:43.701Z,87.50
2023-02-23T16:36:18.672Z,87.50
2023-02-23T16:38:57.003Z,88.50
2023-02-23T16:41:25.525Z,89.20
2023-02-23T16:43:55.477Z,89.50
2023-02-23T16:46:24.785Z,89.10
2023-02-23T16:48:51.885Z,89.00
2023-02-23T16:51:20.731Z,89.50
2023-02-23T16:53:47.504Z,90.10
2023-02-23T16:56:20.335Z,90.10
2023-02-23T16:58:49.433Z,90.50
2023-02-23T17:01:19.015Z,90.80
2023-02-23T17:04:05.845Z,91.00
2023-02-23T17:06:32.755Z,91.20
2023-02-23T17:08:59.552Z,91.70
2023-02-23T17:11:26.576Z,91.70
2023-02-23T17:13:53.470Z,91.70
2023-02-23T17:16:21.949Z,92.10
2023-02-23T17:18:48.905Z,92.30
2023-02-23T17:21:16.763Z,92.90
2023-02-23T17:23:43.574Z,93.20
2023-02-23T17:26:11.684Z,93.60
2023-02-23T17:28:38.847Z,96.10
2023-02-23T17:31:07.044Z,94.00
2023-02-23T17:33:35.960Z,94.30
2023-02-23T17:36:04.160Z,94.90
2023-02-23T17:38:31.198Z,95.30
2023-02-23T17:40:57.963Z,95.50
2023-02-23T17:43:24.935Z,96.10
2023-02-23T17:45:52.838Z,96.00
2023-02-23T17:48:19.631Z,96.80
2023-02-23T17:50:47.858Z,96.80
2023-02-23T17:53:14.612Z,97.10
2023-02-23T17:55:41.805Z,97.50
2023-02-23T17:58:09.143Z,97.60
2023-02-23T18:00:36.005Z,98.10
2023-02-23T18:03:02.767Z,98.40
2023-02-23T18:05:29.515Z,99.10
2023-02-23T18:07:57.594Z,99.40
2023-02-23T18:10:24.359Z,99.60
2023-02-23T18:12:51.200Z,99.90
2023-02-23T18:15:18.031Z,99.90
2023-02-23T18:17:44.856Z,99.90
2023-02-23T18:20:12.763Z,99.90
2023-02-23T18:22:39.509Z,99.90
2023-02-23T18:25:09.157Z,99.90
2023-02-23T18:27:35.966Z,99.90
2023-02-23T18:30:03.105Z,99.90
2023-02-23T18:32:30.021Z,99.90
2023-02-23T18:34:56.904Z,99.90
2023-02-23T18:37:23.686Z,99.90
2023-02-23T18:39:52.471Z,99.90
2023-02-23T18:42:20.613Z,99.90
2023-02-23T18:44:47.539Z,99.90
2023-02-23T18:47:14.265Z,99.90
2023-02-23T18:49:41.122Z,99.90
2023-02-23T18:52:07.865Z,99.90
2023-02-23T18:54:34.702Z,99.90
2023-02-23T18:57:01.528Z,99.90
2023-02-23T18:59:29.682Z,99.90
2023-02-23T19:01:56.421Z,99.90
2023-02-23T19:04:23.211Z,99.90
2023-02-23T19:06:49.980Z,99.90
2023-02-23T19:09:16.886Z,99.90
2023-02-23T19:11:43.717Z,99.90
2023-02-23T19:14:12.794Z,99.90
2023-02-23T19:16:41.414Z,99.90
2023-02-23T19:19:08.747Z,99.90
2023-02-23T19:21:36.025Z,99.90
2023-02-23T19:24:03.897Z,99.90
2023-02-23T19:26:31.563Z,99.90
2023-02-23T19:28:58.478Z,99.90
2023-02-23T19:31:25.633Z,99.90
2023-02-23T19:33:55.836Z,99.90
2023-02-23T19:36:24.995Z,99.90
2023-02-23T19:38:51.713Z,99.90
2023-02-23T19:41:20.364Z,99.90
2023-02-23T19:43:47.725Z,99.90
2023-02-23T19:46:16.483Z,99.90
2023-02-23T19:48:44.824Z,99.90
2023-02-23T19:51:13.664Z,99.90
2023-02-23T19:53:40.510Z,99.90
2023-02-23T19:56:10.122Z,99.90
2023-02-23T19:58:37.613Z,99.90
2023-02-23T20:01:05.192Z,99.90
2023-02-23T20:03:32.396Z,99.90
2023-02-23T20:05:59.692Z,99.90
2023-02-23T20:08:27.965Z,99.90
2023-02-23T20:10:54.795Z,99.90
2023-02-23T20:13:21.792Z,99.90
2023-02-23T20:15:49.007Z,99.90
2023-02-23T20:18:16.228Z,99.90
2023-02-23T20:20:43.311Z,99.90
2023-02-23T20:23:10.214Z,99.90
2023-02-23T20:25:41.415Z,99.90
2023-02-23T20:28:08.206Z,99.90
2023-02-23T20:30:35.031Z,99.90
2023-02-23T20:33:02.574Z,99.90
2023-02-23T20:35:29.346Z,99.90
2023-02-23T20:37:56.086Z,99.90
2023-02-23T20:40:22.955Z,99.90
2023-02-23T20:42:51.777Z,99.90
2023-02-23T20:45:21.807Z,99.90
2023-02-23T20:47:49.568Z,99.90
2023-02-23T20:50:16.551Z,99.90
2023-02-23T20:52:43.475Z,99.90
2023-02-23T20:55:10.751Z,99.90
2023-02-23T20:57:38.094Z,99.90
2023-02-23T21:00:08.644Z,99.90
2023-02-23T21:02:36.024Z,99.90
2023-02-23T21:05:03.209Z,99.90
2023-02-23T21:07:31.989Z,99.90
2023-02-23T21:09:58.876Z,99.90
2023-02-23T21:12:25.883Z,99.90
2023-02-23T21:14:52.669Z,99.90
2023-02-23T21:17:20.933Z,99.90
2023-02-23T21:19:47.766Z,99.90
2023-02-23T21:22:14.723Z,99.90
2023-02-23T21:24:41.633Z,99.90
2023-02-23T21:27:08.400Z,99.90
2023-02-23T21:29:35.227Z,99.90
2023-02-23T21:32:02.183Z,99.90
2023-02-23T21:34:30.363Z,99.90
2023-02-23T21:36:57.102Z,99.90
2023-02-23T21:39:23.913Z,99.90
2023-02-23T21:41:50.701Z,99.90
2023-02-23T21:44:17.448Z,99.90
2023-02-23T21:46:44.363Z,99.90
2023-02-23T21:49:11.304Z,99.90
2023-02-23T21:51:39.694Z,99.90
2023-02-23T21:54:06.647Z,99.90
2023-02-23T21:56:33.651Z,99.90
2023-02-23T21:59:00.675Z,99.90
2023-02-23T22:01:29.534Z,99.90
2023-02-23T22:03:56.974Z,99.90
2023-02-23T22:06:26.586Z,99.90
2023-02-23T22:08:55.362Z,99.90
2023-02-23T22:11:24.841Z,99.90
2023-02-23T22:13:53.333Z,99.90
2023-02-23T22:16:21.473Z,99.90
2023-02-23T22:18:48.311Z,99.90
2023-02-23T22:21:15.176Z,99.90
2023-02-23T22:23:42.456Z,99.90
2023-02-23T22:26:10.657Z,99.90
2023-02-23T22:28:37.390Z,99.90
2023-02-23T22:31:05.044Z,99.90
2023-02-23T22:33:31.824Z,99.90
2023-02-23T22:36:01.031Z,99.90
2023-02-23T22:38:27.898Z,99.90
2023-02-23T22:40:54.662Z,99.90
2023-02-23T22:43:22.787Z,99.90
2023-02-23T22:45:53.661Z,99.90
2023-02-23T22:48:20.603Z,99.90
2023-02-23T22:50:47.380Z,99.90
2023-02-23T22:53:14.146Z,99.90
2023-02-23T22:55:46.400Z,99.90
2023-02-23T22:58:13.396Z,99.90
2023-02-23T23:00:41.636Z,99.90
2023-02-23T23:03:09.064Z,99.90
2023-02-23T23:05:35.864Z,99.90
2023-02-23T23:08:02.608Z,99.90
2023-02-23T23:10:29.384Z,99.90
2023-02-23T23:12:56.205Z,99.90
2023-02-23T23:15:23.625Z,99.90
2023-02-23T23:17:51.730Z,99.90
2023-02-23T23:20:21.143Z,99.90
2023-02-23T23:22:47.872Z,99.90
2023-02-23T23:25:14.744Z,99.90
2023-02-23T23:27:43.569Z,99.90
2023-02-23T23:30:12.297Z,99.90
2023-02-23T23:32:39.897Z,99.90
2023-02-23T23:35:09.044Z,99.90
2023-02-23T23:37:35.783Z,99.90
2023-02-23T23:40:02.598Z,99.90
2023-02-23T23:42:29.374Z,99.90
2023-02-23T23:44:56.083Z,99.90
2023-02-23T23:47:23.027Z,99.90
2023-02-23T23:49:49.781Z,99.90
2023-02-23T23:52:17.928Z,99.90
2023-02-23T23:54:44.703Z,99.90
2023-02-23T23:57:11.462Z,99.90
2023-02-23T23:59:38.283Z,99.90
